Time;durP1;ratioP1;P1;durP2;ratioP2;P2;SDS_P1;SDS_P2;PMS_P1;PMS_P2;Temp;Humidity;BMP_temperature;BMP_pressure;BME280_temperature;BME280_humidity;BME280_pressure;Samples;Min_cycle;Max_cycle;Signal;HPM_P1;HPM_P2
2020/12/27 00:01:06;;;;;;;29.67;13.23;;;-1.20;99.90;;;;;;4382127;32;20137;-73
2020/12/27 00:03:32;;;;;;;31.30;13.70;;;-1.20;99.90;;;;;;4380821;32;20143;-73
2020/12/27 00:05:59;;;;;;;28.03;13.20;;;-1.20;99.90;;;;;;4380667;32;20199;-72
2020/12/27 00:08:25;;;;;;;26.00;12.90;;;-1.20;99.90;;;;;;4380542;32;20470;-72
2020/12/27 00:10:52;;;;;;;26.40;13.20;;;-1.20;99.90;;;;;;4381453;32;20140;-72
2020/12/27 00:13:18;;;;;;;29.97;12.97;;;-1.10;99.90;;;;;;4381151;32;20209;-73
2020/12/27 00:15:44;;;;;;;27.33;12.17;;;-1.10;99.90;;;;;;4380131;32;20188;-73
2020/12/27 00:18:11;;;;;;;28.83;13.03;;;-1.10;99.90;;;;;;4380463;32;20177;-72
2020/12/27 00:20:37;;;;;;;31.23;12.60;;;-1.10;99.90;;;;;;4380197;32;20254;-73
2020/12/27 00:23:04;;;;;;;31.20;13.37;;;-1.20;99.90;;;;;;4380311;32;20145;-73
2020/12/27 00:25:32;;;;;;;27.70;13.00;;;-1.20;99.90;;;;;;4381048;32;20387;-72
2020/12/27 00:27:59;;;;;;;30.10;13.50;;;-1.30;99.90;;;;;;4380356;32;20144;-73
2020/12/27 00:30:25;;;;;;;29.57;12.90;;;-1.30;99.90;;;;;;4365255;32;20171;-73
2020/12/27 00:32:52;;;;;;;27.53;12.67;;;-1.30;99.90;;;;;;4377611;32;20159;-73
2020/12/27 00:35:18;;;;;;;24.77;11.83;;;-1.30;99.90;;;;;;4380240;32;20148;-73
2020/12/27 00:37:45;;;;;;;28.97;12.20;;;-1.30;99.90;;;;;;4379621;32;20144;-73
2020/12/27 00:40:11;;;;;;;26.67;12.67;;;-1.30;99.90;;;;;;4380825;32;20259;-73
2020/12/27 00:42:37;;;;;;;28.97;12.77;;;-1.30;99.90;;;;;;4380057;32;20202;-73
2020/12/27 00:45:05;;;;;;;26.37;12.50;;;-1.30;99.90;;;;;;4380012;32;20212;-73
2020/12/27 00:47:31;;;;;;;27.33;12.30;;;-1.30;99.90;;;;;;4380013;32;20417;-73
2020/12/27 00:49:58;;;;;;;27.67;12.03;;;-1.30;99.90;;;;;;4380940;32;20198;-73
2020/12/27 00:52:24;;;;;;;24.73;11.73;;;-1.30;99.90;;;;;;4379869;32;20193;-73
2020/12/27 00:54:50;;;;;;;25.63;12.07;;;-1.30;99.90;;;;;;4380392;32;20136;-73
2020/12/27 00:57:17;;;;;;;26.60;11.53;;;-1.40;99.90;;;;;;4379283;32;20160;-73
2020/12/27 00:59:44;;;;;;;23.47;11.23;;;-1.40;99.90;;;;;;4381038;32;20207;-73
2020/12/27 01:02:10;;;;;;;25.23;12.17;;;-1.40;99.90;;;;;;4379722;32;20198;-73
2020/12/27 01:04:38;;;;;;;23.70;11.30;;;-1.40;99.90;;;;;;4379570;32;20179;-72
2020/12/27 01:07:05;;;;;;;20.73;10.97;;;-1.40;99.90;;;;;;4379137;32;20171;-72
2020/12/27 01:09:32;;;;;;;23.80;11.50;;;-1.40;99.90;;;;;;4379711;32;20140;-72
2020/12/27 01:11:58;;;;;;;26.73;11.43;;;-1.40;99.90;;;;;;4379178;32;20353;-72
2020/12/27 01:14:25;;;;;;;24.73;11.27;;;-1.40;99.90;;;;;;4379571;32;20362;-72
2020/12/27 01:16:51;;;;;;;22.47;10.07;;;-1.40;99.90;;;;;;4379341;32;20142;-72
2020/12/27 01:19:18;;;;;;;25.40;11.20;;;-1.40;99.90;;;;;;4373195;32;20609;-72
2020/12/27 01:21:44;;;;;;;22.43;10.97;;;-1.50;99.90;;;;;;4379367;32;20370;-73
2020/12/27 01:24:11;;;;;;;22.63;11.30;;;-1.50;99.90;;;;;;4379515;32;20185;-72
2020/12/27 01:26:37;;;;;;;28.90;11.30;;;-1.50;99.90;;;;;;4379386;32;20183;-72
2020/12/27 01:29:05;;;;;;;23.07;11.17;;;-1.50;99.90;;;;;;4381125;32;20192;-72
2020/12/27 01:31:33;;;;;;;26.07;11.47;;;-1.50;99.90;;;;;;4379488;32;20148;-72
2020/12/27 01:33:59;;;;;;;25.10;11.93;;;-1.60;99.90;;;;;;4379372;32;20158;-72
2020/12/27 01:36:34;;;;;;;21.13;10.53;;;-1.50;99.90;;;;;;4379992;32;20144;-72
2020/12/27 01:39:03;;;;;;;26.10;11.80;;;-1.50;99.90;;;;;;4379281;32;20166;-72
2020/12/27 01:41:30;;;;;;;28.17;12.17;;;-1.50;99.90;;;;;;4380677;32;20216;-71
2020/12/27 01:44:01;;;;;;;28.23;11.57;;;-1.50;99.90;;;;;;4379354;32;20194;-72
2020/12/27 01:46:29;;;;;;;24.00;10.90;;;-1.50;99.90;;;;;;4378573;32;20171;-72
2020/12/27 01:48:56;;;;;;;23.73;10.07;;;-1.50;99.90;;;;;;4379184;32;20183;-72
2020/12/27 01:51:23;;;;;;;23.70;11.33;;;-1.60;99.90;;;;;;4378991;32;20158;-72
2020/12/27 01:53:50;;;;;;;26.93;11.07;;;-1.60;99.90;;;;;;4379261;32;20159;-72
2020/12/27 01:56:18;;;;;;;24.30;11.13;;;-1.60;99.90;;;;;;4380672;32;20159;-72
2020/12/27 01:58:53;;;;;;;23.93;11.13;;;-1.60;99.90;;;;;;4378636;32;20144;-72
2020/12/27 02:01:19;;;;;;;22.57;10.90;;;-1.60;99.90;;;;;;4379479;32;20202;-73
2020/12/27 02:03:48;;;;;;;26.77;11.70;;;-1.60;99.90;;;;;;4379177;32;20227;-73
2020/12/27 02:06:15;;;;;;;24.03;10.87;;;-1.70;99.90;;;;;;4380524;32;20139;-73
2020/12/27 02:08:43;;;;;;;23.50;10.63;;;-1.60;99.90;;;;;;4379044;32;20163;-73
2020/12/27 02:11:10;;;;;;;24.47;10.70;;;-1.70;99.90;;;;;;4379047;32;20136;-72
2020/12/27 02:13:47;;;;;;;21.40;10.17;;;-1.80;99.90;;;;;;4378991;32;20183;-72
2020/12/27 02:16:25;;;;;;;25.50;11.20;;;-1.70;99.90;;;;;;4379776;32;20197;-72
2020/12/27 02:18:56;;;;;;;25.10;11.23;;;-1.70;99.90;;;;;;4367197;32;20400;-72
2020/12/27 02:21:23;;;;;;;21.47;10.57;;;-1.70;99.90;;;;;;4378192;32;20144;-72
2020/12/27 02:23:55;;;;;;;29.60;10.87;;;-1.70;99.90;;;;;;4381989;32;20217;-72
2020/12/27 02:26:22;;;;;;;23.93;10.60;;;-1.70;99.90;;;;;;4383774;32;20179;-71
2020/12/27 02:28:48;;;;;;;23.17;10.30;;;-1.70;99.90;;;;;;4383666;32;20532;-73
2020/12/27 02:31:14;;;;;;;20.43;9.83;;;-1.70;99.90;;;;;;4381899;32;20379;-72
2020/12/27 02:33:41;;;;;;;25.70;10.50;;;-1.80;99.90;;;;;;4381940;32;20168;-72
2020/12/27 02:36:11;;;;;;;24.47;10.27;;;-1.80;99.90;;;;;;4381844;32;20156;-72
2020/12/27 02:38:39;;;;;;;19.77;9.87;;;-1.80;99.90;;;;;;4381425;32;20198;-71
2020/12/27 02:41:16;;;;;;;20.53;9.97;;;-1.70;99.90;;;;;;4367079;32;20183;-71
2020/12/27 02:43:42;;;;;;;20.90;10.17;;;-1.80;99.90;;;;;;4383196;32;20154;-72
2020/12/27 02:46:25;;;;;;;25.23;9.90;;;-1.70;99.90;;;;;;4381682;32;20392;-72
2020/12/27 02:48:51;;;;;;;22.13;10.07;;;-1.70;99.90;;;;;;4381751;32;20143;-73
2020/12/27 02:51:19;;;;;;;21.60;9.50;;;-1.70;99.90;;;;;;4381688;32;20536;-72
2020/12/27 02:53:48;;;;;;;21.50;10.23;;;-1.70;99.90;;;;;;4381674;32;20166;-73
2020/12/27 02:56:17;;;;;;;21.83;9.93;;;-1.80;99.90;;;;;;4381581;32;20194;-72
2020/12/27 02:58:44;;;;;;;24.50;9.53;;;-1.80;99.90;;;;;;4381596;32;20135;-71
2020/12/27 03:01:11;;;;;;;21.27;9.33;;;-1.80;99.90;;;;;;4381592;32;20136;-72
2020/12/27 03:03:38;;;;;;;20.03;9.50;;;-1.90;99.90;;;;;;4381612;32;20219;-73
2020/12/27 03:06:24;;;;;;;18.10;9.17;;;-1.90;99.90;;;;;;4381045;32;20484;-72
2020/12/27 03:08:54;;;;;;;21.83;9.60;;;-1.90;99.90;;;;;;4381446;32;20163;-72
2020/12/27 03:11:26;;;;;;;20.63;9.53;;;-1.80;99.90;;;;;;4363188;32;20147;-72
2020/12/27 03:13:53;;;;;;;21.00;9.17;;;-1.80;99.90;;;;;;4381627;32;20144;-72
2020/12/27 03:16:21;;;;;;;19.70;8.93;;;-1.80;99.90;;;;;;4381350;32;20144;-73
2020/12/27 03:18:47;;;;;;;18.40;8.90;;;-1.80;99.90;;;;;;4381083;32;20211;-73
2020/12/27 03:21:15;;;;;;;22.10;9.30;;;-1.90;99.90;;;;;;4383046;32;20466;-73
2020/12/27 03:23:42;;;;;;;19.37;9.00;;;-1.80;99.90;;;;;;4381191;32;20175;-73
2020/12/27 03:26:08;;;;;;;20.87;10.00;;;-1.90;99.90;;;;;;4381736;32;20508;-72
2020/12/27 03:28:35;;;;;;;19.83;9.10;;;-1.80;99.90;;;;;;4382725;32;20148;-72
2020/12/27 03:31:01;;;;;;;19.63;9.33;;;-1.80;99.90;;;;;;4382368;32;20166;-72
2020/12/27 03:33:28;;;;;;;21.77;9.57;;;-1.80;99.90;;;;;;4381881;32;20175;-73
2020/12/27 03:35:54;;;;;;;22.27;9.73;;;-1.90;99.90;;;;;;4380999;32;20140;-72
2020/12/27 03:38:21;;;;;;;21.03;9.63;;;-1.90;99.90;;;;;;4380785;32;20190;-73
2020/12/27 03:40:47;;;;;;;19.93;8.93;;;-1.90;99.90;;;;;;4380965;32;20422;-73
2020/12/27 03:43:14;;;;;;;19.00;9.03;;;-1.90;99.90;;;;;;4380881;32;20160;-73
2020/12/27 03:45:41;;;;;;;18.53;8.83;;;-1.90;99.90;;;;;;4380907;32;20202;-73
2020/12/27 03:48:08;;;;;;;20.73;9.00;;;-1.90;99.90;;;;;;4381178;32;20501;-72
2020/12/27 03:50:35;;;;;;;22.00;9.47;;;-2.00;99.90;;;;;;4380865;32;20191;-72
2020/12/27 03:53:01;;;;;;;20.23;8.27;;;-2.00;99.90;;;;;;4382555;32;20191;-72
2020/12/27 03:55:27;;;;;;;18.50;8.80;;;-2.00;99.90;;;;;;4380891;32;20213;-73
2020/12/27 03:57:54;;;;;;;21.13;9.20;;;-2.00;99.90;;;;;;4380779;32;20163;-73
2020/12/27 04:00:21;;;;;;;21.23;9.20;;;-2.00;99.90;;;;;;4380752;32;20194;-73
2020/12/27 04:02:47;;;;;;;20.13;8.60;;;-1.90;99.90;;;;;;4380804;32;20193;-72
2020/12/27 04:05:14;;;;;;;19.20;8.73;;;-2.00;99.90;;;;;;4380151;32;20204;-72
2020/12/27 04:07:40;;;;;;;20.20;8.90;;;-2.00;99.90;;;;;;4382040;32;20154;-72
2020/12/27 04:10:15;;;;;;;22.30;9.33;;;-2.00;99.90;;;;;;4382085;32;20139;-72
2020/12/27 04:12:42;;;;;;;23.43;9.07;;;-2.00;99.90;;;;;;4381711;32;20154;-72
2020/12/27 04:15:08;;;;;;;21.60;8.37;;;-2.00;99.90;;;;;;4380467;32;20227;-72
2020/12/27 04:17:35;;;;;;;19.13;8.77;;;-1.90;99.90;;;;;;4380384;32;20144;-72
2020/12/27 04:20:03;;;;;;;19.13;8.87;;;-2.00;99.90;;;;;;4380276;32;20163;-71
2020/12/27 04:22:30;;;;;;;20.70;9.07;;;-2.00;99.90;;;;;;4380370;32;20174;-72
2020/12/27 04:24:56;;;;;;;17.80;8.67;;;-2.00;99.90;;;;;;4379627;32;20224;-72
2020/12/27 04:27:23;;;;;;;19.60;8.50;;;-2.10;99.90;;;;;;4380297;32;20140;-72
2020/12/27 04:29:49;;;;;;;20.00;8.53;;;-2.10;99.90;;;;;;4380355;32;20166;-72
2020/12/27 04:32:16;;;;;;;19.50;8.37;;;-2.00;99.90;;;;;;4380198;32;20521;-72
2020/12/27 04:34:42;;;;;;;19.33;8.43;;;-2.10;99.90;;;;;;4380213;32;20145;-72
2020/12/27 04:37:24;;;;;;;19.87;8.40;;;-2.10;99.90;;;;;;4380006;32;20162;-73
2020/12/27 04:39:51;;;;;;;21.37;9.07;;;-2.00;99.90;;;;;;4380897;32;20186;-72
2020/12/27 04:42:17;;;;;;;19.00;8.90;;;-2.00;99.90;;;;;;4380008;32;20145;-72
2020/12/27 04:44:44;;;;;;;19.50;8.47;;;-2.00;99.90;;;;;;4380046;32;20144;-72
2020/12/27 04:47:13;;;;;;;20.40;9.00;;;-2.10;99.90;;;;;;4380013;32;20168;-72
2020/12/27 04:49:40;;;;;;;19.90;9.43;;;-2.10;99.90;;;;;;4381446;32;20385;-72
2020/12/27 04:52:11;;;;;;;19.13;8.70;;;-2.10;99.90;;;;;;4381426;32;20208;-72
2020/12/27 04:54:38;;;;;;;21.27;9.40;;;-2.10;99.90;;;;;;4381655;32;20205;-72
2020/12/27 04:57:04;;;;;;;23.37;9.63;;;-2.20;99.90;;;;;;4379875;32;20152;-72
2020/12/27 04:59:31;;;;;;;22.87;10.23;;;-2.20;99.90;;;;;;4379367;32;20167;-73
2020/12/27 05:01:57;;;;;;;20.63;9.27;;;-2.20;99.90;;;;;;4379772;32;20148;-72
2020/12/27 05:04:27;;;;;;;23.57;10.00;;;-2.20;99.90;;;;;;4379530;32;20481;-72
2020/12/27 05:06:55;;;;;;;24.37;10.40;;;-2.20;99.90;;;;;;4379786;32;20147;-72
2020/12/27 05:09:28;;;;;;;24.13;10.27;;;-2.30;99.90;;;;;;4379706;32;20151;-72
2020/12/27 05:11:56;;;;;;;25.03;10.60;;;-2.30;99.90;;;;;;4381175;32;20152;-72
2020/12/27 05:14:29;;;;;;;23.00;10.67;;;-2.30;99.90;;;;;;4366191;32;20437;-72
2020/12/27 05:16:57;;;;;;;23.30;10.00;;;-2.30;99.90;;;;;;4381110;32;20174;-72
2020/12/27 05:19:25;;;;;;;22.50;10.30;;;-2.30;99.90;;;;;;4379355;32;20398;-73
2020/12/27 05:21:54;;;;;;;23.90;10.33;;;-2.30;99.90;;;;;;4367608;32;20175;-72
2020/12/27 05:24:21;;;;;;;24.53;11.00;;;-2.30;99.90;;;;;;4379370;32;20513;-72
2020/12/27 05:26:51;;;;;;;24.53;10.90;;;-2.20;99.90;;;;;;4379536;32;20183;-72
2020/12/27 05:29:37;;;;;;;23.70;10.73;;;-2.20;99.90;;;;;;4379527;32;20205;-72
2020/12/27 05:32:04;;;;;;;27.33;11.37;;;-2.20;99.90;;;;;;4381190;32;20190;-72
2020/12/27 05:34:32;;;;;;;26.67;11.37;;;-2.20;99.90;;;;;;4379404;32;20470;-72
2020/12/27 05:37:00;;;;;;;27.13;10.43;;;-2.20;99.90;;;;;;4380420;32;20171;-72
2020/12/27 05:39:30;;;;;;;26.67;11.10;;;-2.20;99.90;;;;;;4379311;32;20164;-72
2020/12/27 05:42:00;;;;;;;25.47;10.97;;;-2.20;99.90;;;;;;4379271;32;20152;-72
2020/12/27 05:44:27;;;;;;;26.27;11.67;;;-2.30;99.90;;;;;;4380605;32;20175;-72
2020/12/27 05:46:56;;;;;;;27.57;11.70;;;-2.30;99.90;;;;;;4379171;32;20200;-72
2020/12/27 05:49:24;;;;;;;26.73;11.80;;;-2.30;99.90;;;;;;4379139;32;20139;-72
2020/12/27 05:51:55;;;;;;;26.03;11.40;;;-2.30;99.90;;;;;;4378484;32;20177;-72
2020/12/27 05:54:35;;;;;;;28.23;12.10;;;-2.30;99.90;;;;;;4379078;32;20166;-72
2020/12/27 05:57:04;;;;;;;24.10;11.60;;;-2.30;99.90;;;;;;4379382;32;20464;-72
2020/12/27 05:59:35;;;;;;;27.17;11.77;;;-2.30;99.90;;;;;;4379028;32;20194;-73
2020/12/27 06:02:02;;;;;;;29.23;12.47;;;-2.30;99.90;;;;;;4380763;32;20170;-72
2020/12/27 06:04:58;;;;;;;30.87;12.90;;;-2.40;99.90;;;;;;4380452;32;20446;-72
2020/12/27 06:07:38;;;;;;;29.90;12.57;;;-2.30;99.90;;;;;;4375059;32;20175;-72
2020/12/27 06:10:06;;;;;;;32.87;12.90;;;-2.40;99.90;;;;;;4379198;32;20136;-71
2020/12/27 06:12:57;;;;;;;34.50;13.30;;;-2.40;99.90;;;;;;4378989;32;20474;-72
2020/12/27 06:15:29;;;;;;;31.47;13.07;;;-2.40;99.90;;;;;;4378937;32;20144;-72
2020/12/27 06:18:13;;;;;;;31.10;13.33;;;-2.40;99.90;;;;;;4378989;32;20144;-72
2020/12/27 06:20:44;;;;;;;29.27;12.87;;;-2.50;99.90;;;;;;4376021;32;20243;-72
2020/12/27 06:23:11;;;;;;;30.80;13.43;;;-2.50;99.90;;;;;;4379690;32;20198;-72
2020/12/27 06:25:39;;;;;;;30.43;13.73;;;-2.50;99.90;;;;;;4380387;32;20199;-72
2020/12/27 06:28:06;;;;;;;34.37;14.33;;;-2.40;99.90;;;;;;4378894;32;20156;-72
2020/12/27 06:30:42;;;;;;;31.40;14.33;;;-2.50;99.90;;;;;;4380452;32;20196;-72
2020/12/27 06:33:27;;;;;;;31.80;13.80;;;-2.60;99.90;;;;;;4380378;32;20144;-72
2020/12/27 06:35:54;;;;;;;30.60;13.83;;;-2.50;99.90;;;;;;4379178;32;20201;-72
2020/12/27 06:38:37;;;;;;;30.90;13.70;;;-2.50;99.90;;;;;;4380345;32;20190;-73
2020/12/27 06:41:09;;;;;;;33.77;13.97;;;-2.50;99.90;;;;;;4378854;32;20175;-73
2020/12/27 06:43:43;;;;;;;33.40;15.00;;;-2.50;99.90;;;;;;4378669;32;20170;-73
2020/12/27 06:46:22;;;;;;;32.67;13.83;;;-2.50;99.90;;;;;;4378881;32;20202;-73
2020/12/27 06:48:48;;;;;;;31.57;13.87;;;-2.40;99.90;;;;;;4378813;32;20191;-73
2020/12/27 06:51:37;;;;;;;29.20;14.00;;;-2.40;99.90;;;;;;4380242;32;20398;-73
2020/12/27 06:54:04;;;;;;;35.47;13.97;;;-2.50;99.90;;;;;;4380091;32;20143;-73
2020/12/27 06:56:42;;;;;;;31.93;13.73;;;-2.50;99.90;;;;;;4378808;32;20166;-73
2020/12/27 06:59:09;;;;;;;29.37;13.70;;;-2.50;99.90;;;;;;4378769;32;20171;-73
2020/12/27 07:01:35;;;;;;;32.00;13.43;;;-2.40;99.90;;;;;;4380112;32;20143;-73
2020/12/27 07:04:20;;;;;;;29.83;13.07;;;-2.40;99.90;;;;;;4381084;32;20151;-73
2020/12/27 07:06:49;;;;;;;32.47;13.27;;;-2.50;99.90;;;;;;4381697;32;20191;-73
2020/12/27 07:09:23;;;;;;;33.10;13.93;;;-2.50;99.90;;;;;;4368011;32;20216;-73
2020/12/27 07:12:07;;;;;;;30.63;14.33;;;-2.50;99.90;;;;;;4382865;32;20215;-73
2020/12/27 07:14:41;;;;;;;34.07;13.97;;;-2.40;99.90;;;;;;4381489;32;20148;-73
2020/12/27 07:17:09;;;;;;;32.43;14.43;;;-2.40;99.90;;;;;;4381403;32;20497;-73
2020/12/27 07:19:38;;;;;;;34.37;14.10;;;-2.40;99.90;;;;;;4381119;32;20183;-73
2020/12/27 07:22:10;;;;;;;30.23;14.43;;;-2.40;99.90;;;;;;4380698;32;20163;-73
2020/12/27 07:24:41;;;;;;;33.93;14.70;;;-2.30;99.90;;;;;;4380431;32;20152;-73
2020/12/27 07:27:10;;;;;;;30.77;13.90;;;-2.30;99.90;;;;;;4381759;32;20140;-73
2020/12/27 07:29:39;;;;;;;31.23;14.30;;;-2.30;99.90;;;;;;4381058;32;20158;-73
2020/12/27 07:32:06;;;;;;;31.43;14.57;;;-2.30;99.90;;;;;;4381252;32;20192;-73
2020/12/27 07:34:33;;;;;;;34.27;13.90;;;-2.30;99.90;;;;;;4380729;32;20226;-73
2020/12/27 07:37:04;;;;;;;33.13;15.33;;;-2.30;99.90;;;;;;4381499;32;20160;-73
2020/12/27 07:39:57;;;;;;;30.67;14.13;;;-2.20;99.90;;;;;;4382777;32;20191;-73
2020/12/27 07:42:29;;;;;;;35.13;13.47;;;-2.20;99.90;;;;;;4381596;32;20166;-72
2020/12/27 07:44:59;;;;;;;32.60;14.03;;;-2.10;99.90;;;;;;4381839;32;20421;-73
2020/12/27 07:47:26;;;;;;;30.50;13.60;;;-2.10;99.90;;;;;;4381753;32;20472;-72
2020/12/27 07:50:12;;;;;;;31.40;13.67;;;-2.10;99.90;;;;;;4382145;32;20149;-73
2020/12/27 07:53:00;;;;;;;34.00;14.07;;;-2.00;99.90;;;;;;4381779;32;20179;-73
2020/12/27 07:55:32;;;;;;;29.57;13.67;;;-2.00;99.90;;;;;;4382235;32;20192;-73
2020/12/27 07:58:04;;;;;;;30.50;12.83;;;-1.90;99.90;;;;;;4379099;32;20205;-74
2020/12/27 08:00:36;;;;;;;27.60;12.13;;;-1.80;99.90;;;;;;4382046;32;20474;-73
2020/12/27 08:03:06;;;;;;;29.30;12.43;;;-1.60;99.90;;;;;;4380788;32;20197;-75
2020/12/27 08:05:36;;;;;;;28.97;12.63;;;-1.30;99.90;;;;;;4380416;32;20166;-73
2020/12/27 08:08:12;;;;;;;30.83;12.93;;;-1.10;99.90;;;;;;4381993;32;20171;-73
2020/12/27 08:10:39;;;;;;;26.90;12.20;;;-0.90;99.90;;;;;;4380554;32;20226;-73
2020/12/27 08:13:07;;;;;;;24.57;12.03;;;-0.70;99.90;;;;;;4380430;32;20191;-74
2020/12/27 08:15:39;;;;;;;27.73;13.07;;;-0.50;99.90;;;;;;4379710;32;20171;-73
2020/12/27 08:18:07;;;;;;;28.83;13.03;;;-0.50;99.90;;;;;;4380837;32;20386;-74
2020/12/27 08:20:47;;;;;;;28.10;12.23;;;-0.50;99.90;;;;;;4380168;32;20194;-74
2020/12/27 08:23:17;;;;;;;26.90;12.70;;;-0.70;99.90;;;;;;4380412;32;20511;-73
2020/12/27 08:25:44;;;;;;;27.40;13.13;;;-0.50;99.90;;;;;;4380246;32;20167;-74
2020/12/27 08:28:14;;;;;;;31.13;12.97;;;-0.40;99.90;;;;;;4380231;32;20500;-74
2020/12/27 08:30:40;;;;;;;26.87;12.77;;;-0.20;99.90;;;;;;4381547;32;20171;-74
2020/12/27 08:33:15;;;;;;;28.57;13.07;;;-0.10;99.90;;;;;;4380128;32;20146;-75
2020/12/27 08:35:44;;;;;;;27.40;13.03;;;0.10;99.90;;;;;;4381560;32;20161;-75
2020/12/27 08:38:40;;;;;;;30.23;13.47;;;0.10;99.90;;;;;;4380966;32;20178;-75
2020/12/27 08:41:23;;;;;;;31.00;13.70;;;0.00;99.90;;;;;;4304264;33;20523;-76
2020/12/27 08:44:17;;;;;;;30.43;13.33;;;0.00;99.90;;;;;;4304016;33;20157;-76
2020/12/27 08:46:48;;;;;;;30.13;13.93;;;-0.20;99.90;;;;;;4304469;33;20179;-75
2020/12/27 08:49:18;;;;;;;31.73;14.53;;;-0.20;99.90;;;;;;4305320;33;20165;-75
2020/12/27 08:51:52;;;;;;;32.67;14.63;;;-0.30;99.90;;;;;;4303645;33;20205;-76
2020/12/27 08:54:20;;;;;;;31.83;14.10;;;-0.30;99.90;;;;;;4304029;33;20496;-75
2020/12/27 08:56:47;;;;;;;34.53;14.80;;;-0.40;99.90;;;;;;4303844;33;20200;-74
2020/12/27 08:59:14;;;;;;;28.43;13.47;;;-0.40;99.90;;;;;;4304374;33;20153;-76
2020/12/27 09:01:41;;;;;;;29.03;13.50;;;-0.50;99.90;;;;;;4304952;33;20153;-76
2020/12/27 09:04:19;;;;;;;27.73;13.57;;;-0.50;99.90;;;;;;4303845;33;20530;-76
2020/12/27 09:06:55;;;;;;;31.53;13.90;;;-0.50;99.90;;;;;;4304033;33;20225;-76
2020/12/27 09:09:21;;;;;;;27.10;13.03;;;-0.40;99.90;;;;;;4304963;33;20289;-76
2020/12/27 09:11:48;;;;;;;32.50;14.20;;;-0.40;99.90;;;;;;4303802;33;20209;-75
2020/12/27 09:14:35;;;;;;;31.93;14.50;;;-0.50;99.90;;;;;;4303648;33;20157;-74
2020/12/27 09:17:07;;;;;;;30.67;13.33;;;-0.50;99.90;;;;;;4326772;32;20392;-74
2020/12/27 09:19:35;;;;;;;34.93;14.23;;;-0.40;99.90;;;;;;4379983;32;20163;-74
2020/12/27 09:22:06;;;;;;;28.13;14.50;;;-0.30;99.90;;;;;;4379486;32;20198;-76
2020/12/27 09:24:33;;;;;;;32.70;14.43;;;-0.30;99.90;;;;;;4380756;32;20167;-75
2020/12/27 09:27:10;;;;;;;32.17;14.17;;;-0.30;99.90;;;;;;4379397;32;20482;-73
2020/12/27 09:29:38;;;;;;;29.73;14.03;;;-0.30;99.90;;;;;;4379826;32;20170;-73
2020/12/27 09:32:10;;;;;;;28.93;13.10;;;-0.20;99.90;;;;;;4379270;32;20149;-74
2020/12/27 09:34:37;;;;;;;34.57;14.37;;;-0.10;99.90;;;;;;4379190;32;20183;-74
2020/12/27 09:37:14;;;;;;;31.37;14.90;;;-0.10;99.90;;;;;;4380817;32;20475;-75
2020/12/27 09:39:41;;;;;;;31.57;13.93;;;-0.10;99.90;;;;;;4379083;32;20194;-76
2020/12/27 09:42:26;;;;;;;31.47;13.63;;;-0.10;99.90;;;;;;4379216;32;20257;-74
2020/12/27 09:44:54;;;;;;;28.30;13.47;;;-0.20;99.90;;;;;;4379964;32;20155;-74
2020/12/27 09:47:26;;;;;;;30.07;13.40;;;-0.20;99.90;;;;;;4379042;32;20192;-74
2020/12/27 09:50:06;;;;;;;29.83;13.87;;;-0.10;99.90;;;;;;4380089;32;20187;-75
2020/12/27 09:52:46;;;;;;;29.70;13.37;;;0.00;99.90;;;;;;4380242;32;20155;-75
2020/12/27 09:55:13;;;;;;;29.97;14.50;;;0.00;99.90;;;;;;4378926;32;20174;-74
2020/12/27 09:57:43;;;;;;;31.20;13.90;;;0.00;99.90;;;;;;4379212;32;20142;-74
2020/12/27 10:00:09;;;;;;;27.70;13.23;;;0.10;99.90;;;;;;4380030;32;20199;-76
2020/12/27 10:02:36;;;;;;;32.63;13.77;;;0.20;99.90;;;;;;4378332;32;20203;-76
2020/12/27 10:05:08;;;;;;;31.87;13.60;;;0.20;99.90;;;;;;4379122;32;20552;-74
2020/12/27 10:07:34;;;;;;;29.13;13.87;;;0.20;99.90;;;;;;4380435;32;20367;-74
2020/12/27 10:10:01;;;;;;;32.00;13.10;;;0.20;99.90;;;;;;4378894;32;20140;-74
2020/12/27 10:12:27;;;;;;;31.20;12.87;;;0.10;99.90;;;;;;4378716;32;20146;-74
2020/12/27 10:14:53;;;;;;;34.43;13.30;;;0.20;99.90;;;;;;4365299;32;20182;-74
2020/12/27 10:17:20;;;;;;;26.80;12.43;;;0.20;99.80;;;;;;4379084;32;20158;-74
2020/12/27 10:19:46;;;;;;;31.47;13.50;;;0.20;99.90;;;;;;4378458;32;20164;-74
2020/12/27 10:22:13;;;;;;;32.37;13.30;;;0.30;99.90;;;;;;4378705;32;20457;-74
2020/12/27 10:24:40;;;;;;;30.27;13.33;;;0.40;99.40;;;;;;4378640;32;20572;-74
2020/12/27 10:27:07;;;;;;;33.17;13.63;;;0.40;99.50;;;;;;4380316;32;20147;-74
2020/12/27 10:29:34;;;;;;;30.47;13.23;;;0.40;99.00;;;;;;4378709;32;20493;-74
2020/12/27 10:32:06;;;;;;;29.97;13.33;;;0.50;99.30;;;;;;4378797;32;20156;-74
2020/12/27 10:34:34;;;;;;;26.37;13.23;;;0.50;99.10;;;;;;4380603;32;20147;-74
2020/12/27 10:37:02;;;;;;;27.27;12.03;;;0.50;99.10;;;;;;4365891;32;20155;-74
2020/12/27 10:39:29;;;;;;;27.77;12.37;;;0.60;98.70;;;;;;4381964;32;20569;-75
2020/12/27 10:41:56;;;;;;;27.63;12.50;;;0.60;98.50;;;;;;4383258;32;20171;-75
2020/12/27 10:44:24;;;;;;;24.93;12.30;;;0.60;98.40;;;;;;4381660;32;20174;-74
2020/12/27 10:46:51;;;;;;;28.30;13.10;;;0.70;98.10;;;;;;4383080;32;20178;-74
2020/12/27 10:49:20;;;;;;;29.10;12.90;;;0.60;98.10;;;;;;4381018;32;20163;-74
2020/12/27 10:51:46;;;;;;;30.03;13.03;;;0.70;98.20;;;;;;4381617;32;20219;-75
2020/12/27 10:54:13;;;;;;;26.67;11.77;;;0.90;98.00;;;;;;4381536;32;20144;-75
2020/12/27 10:56:42;;;;;;;24.13;11.50;;;0.90;97.30;;;;;;4381089;32;20154;-75
2020/12/27 10:59:11;;;;;;;27.57;11.63;;;0.80;96.80;;;;;;4382994;32;20147;-74
2020/12/27 11:01:48;;;;;;;24.43;11.57;;;0.90;97.00;;;;;;4381424;32;20139;-75
2020/12/27 11:04:14;;;;;;;21.97;10.93;;;0.90;97.00;;;;;;4383018;32;20210;-74
2020/12/27 11:06:41;;;;;;;25.37;11.23;;;0.90;96.40;;;;;;4381306;32;20166;-74
2020/12/27 11:09:09;;;;;;;23.33;10.83;;;1.00;96.60;;;;;;4382782;32;20401;-74
2020/12/27 11:11:36;;;;;;;21.27;10.40;;;1.10;95.90;;;;;;4381371;32;20142;-76
2020/12/27 11:14:04;;;;;;;22.37;10.17;;;1.20;95.60;;;;;;4381595;32;20167;-73
2020/12/27 11:16:31;;;;;;;21.03;9.97;;;1.30;94.90;;;;;;4380960;32;20148;-74
2020/12/27 11:18:59;;;;;;;22.07;10.23;;;1.20;94.60;;;;;;4380577;32;20214;-75
2020/12/27 11:21:26;;;;;;;23.67;10.27;;;1.30;94.60;;;;;;4382534;32;20144;-74
2020/12/27 11:23:53;;;;;;;22.37;9.50;;;1.30;94.10;;;;;;4380983;32;20466;-75
2020/12/27 11:26:20;;;;;;;19.47;9.33;;;1.30;93.60;;;;;;4380524;32;20532;-75
2020/12/27 11:28:47;;;;;;;21.23;8.77;;;1.30;93.60;;;;;;4380886;32;20191;-73
2020/12/27 11:31:15;;;;;;;18.60;9.50;;;1.40;94.10;;;;;;4380739;32;20140;-74
2020/12/27 11:33:44;;;;;;;18.83;9.20;;;1.40;92.80;;;;;;4380709;32;20502;-74
2020/12/27 11:36:11;;;;;;;18.77;8.43;;;1.50;92.60;;;;;;4382099;32;20178;-74
2020/12/27 11:38:37;;;;;;;17.97;8.77;;;1.40;92.30;;;;;;4382217;32;20255;-74
2020/12/27 11:41:04;;;;;;;18.43;8.67;;;1.50;91.80;;;;;;4380641;32;20148;-74
2020/12/27 11:43:30;;;;;;;17.27;8.37;;;1.70;91.90;;;;;;4380401;32;20389;-75
2020/12/27 11:45:58;;;;;;;18.13;8.90;;;2.00;91.40;;;;;;4380679;32;20169;-75
2020/12/27 11:48:26;;;;;;;17.40;8.10;;;2.50;90.90;;;;;;4382058;32;20190;-74
2020/12/27 11:50:52;;;;;;;19.23;8.37;;;3.00;88.40;;;;;;4380662;32;20171;-74
2020/12/27 11:53:19;;;;;;;17.13;7.93;;;3.30;85.80;;;;;;4380697;32;20170;-75
2020/12/27 11:55:45;;;;;;;17.83;8.00;;;3.40;83.80;;;;;;4368631;32;20191;-74
2020/12/27 11:58:12;;;;;;;16.13;8.37;;;2.90;84.10;;;;;;4380648;32;20384;-74
2020/12/27 12:00:38;;;;;;;18.70;8.23;;;2.90;84.50;;;;;;4380493;32;20212;-75
2020/12/27 12:03:05;;;;;;;15.27;7.57;;;2.90;85.00;;;;;;4367170;32;20227;-73
2020/12/27 12:05:31;;;;;;;15.10;7.93;;;2.90;84.40;;;;;;4380499;32;20175;-75
2020/12/27 12:07:58;;;;;;;17.43;7.63;;;2.90;84.80;;;;;;4380365;32;20151;-73
2020/12/27 12:10:25;;;;;;;15.13;7.37;;;2.80;84.40;;;;;;4379817;32;20140;-74
2020/12/27 12:12:51;;;;;;;16.03;7.27;;;2.80;85.10;;;;;;4380189;32;20136;-73
2020/12/27 12:15:17;;;;;;;15.07;6.83;;;2.60;84.50;;;;;;4381668;32;20455;-74
2020/12/27 12:17:44;;;;;;;17.67;7.80;;;2.50;85.10;;;;;;4380486;32;20147;-73
2020/12/27 12:22:55;;;;;;;16.33;7.20;;;2.40;85.20;;;;;;4381695;32;20215;-74
2020/12/27 12:25:22;;;;;;;15.53;7.33;;;2.50;85.70;;;;;;4380952;32;20186;-74
2020/12/27 12:27:48;;;;;;;16.57;8.73;;;2.40;86.30;;;;;;4379885;32;20136;-75
2020/12/27 12:30:15;;;;;;;17.03;8.37;;;2.40;87.80;;;;;;4380162;32;20198;-76
2020/12/27 12:32:41;;;;;;;16.40;7.63;;;2.50;87.60;;;;;;4379987;32;20182;-74
2020/12/27 12:35:08;;;;;;;16.37;8.13;;;2.40;87.20;;;;;;4379790;32;20190;-75
2020/12/27 12:37:36;;;;;;;15.67;8.13;;;2.40;87.80;;;;;;4380217;32;20144;-75
2020/12/27 12:40:07;;;;;;;15.67;7.53;;;2.40;88.40;;;;;;4379821;32;20145;-76
2020/12/27 12:42:37;;;;;;;14.97;7.77;;;2.40;87.90;;;;;;4380059;32;20202;-75
2020/12/27 12:45:05;;;;;;;18.20;7.97;;;2.40;88.10;;;;;;4379710;32;20177;-75
2020/12/27 12:47:32;;;;;;;17.87;7.90;;;2.30;88.80;;;;;;4379887;32;20143;-76